Cherry Capital Airport
KTVC : now visible

Airfield :











YOU CAN JOIN US ON...

 
LOGIN :

Register | Disclaimer

   EN    FR    IT 

 









Legend :    VFR   Marginal VFR   IFR   Intensive IFR   Very Intensive IFR
Visi :
Ceiling :
>= 8 km
>= 3000ft
5 to 8 km
1000 to 3000 ft
1500m to 5 km
500 to 1000 ft
800 to 1500m
200 to 500 ft
< 800m
< 200 ft
Symbols :   Thunderstorms  Fog  Heavy snow  Heavy precipitations  Wind > 20 kt






- Airport Elevation : 624 ft
- IATA code : TVC


KTVC - Cherry Capital

CURRENT METAR :
  • 220853Z AUTO 00000KT 1/2SM FG VV002 19/18 A3002 RMK AO2 SLP162 60000 T01890183 58011

EXPIRED METARs :
  • 220753Z AUTO 00000KT 1/4SM FG VV002 19/18 A3003 RMK AO2 SLP166 T01890183
  • 220733Z AUTO 00000KT 1/4SM FG VV002 19/18 A3003 RMK AO2 T01890183
  • 220719Z AUTO 00000KT 1/2SM FG VV002 19/18 A3003 RMK AO2 T01890183
  • 220701Z AUTO 00000KT 1 3/4SM BR OVC002 19/18 A3004 RMK AO2 T01890178
  • 220653Z AUTO 00000KT 3/4SM BR VV002 19/18 A3005 RMK AO2 RAE37 SLP173 P0000 T01890183
  • 220638Z AUTO 00000KT 1SM BR VV002 19/18 A3005 RMK AO2 RAE37 P0000 T01890183
  • 220621Z AUTO 00000KT 3/4SM -RA BR VV002 19/18 A3005 RMK AO2 P0000 T01890178
  • 220600Z AUTO 00000KT 1 1/4SM -RA BR OVC002 19/18 A3005 RMK AO2 P0000 T01890178
  • 220453Z AUTO 01003KT 8SM OVC002 18/18 A3007 RMK AO2 SLP179 T01830178 402440183
  • 220404Z AUTO 35003KT 7SM OVC004 19/18 A3006 RMK AO2 T01940183

TAF KTVC
Valid from the 22 at 08:00 until the 23 at 06:00 UTC


220758Z 2208/2306 00000KT 2SM -SHRA BR OVC004
TEMPO 2208/2212 1/4SM -SHRA FG OVC002
FM221200 VRB03KT 5SM -SHRA BR OVC009
FM221900 21007KT 3SM TSRA BR OVC010CB
FM222200 20007KT 2SM +SHRA BR OVC007
FM230000 22006KT 2SM +TSRA BR OVC008CB WS020/22030KT
KZMP FIR / North America



MET'MAP, your aeronautical weather chart ! - Copyright ORBIFLY December 2007 - Disclaimer

ORBIFLY MET'MAP TEAM :

Programming & Development : Alexandra Zaïnal
Original concept : Baudouin d'Aumeries
Technical & hardware support : Manuel Goepfert
Assistance : Marc-Olivier Méhu




SOURCES & CREDITS :

   NOAA       Earth
Advisory